createdAt,value
2019-03-30T00:01:54.184Z,64.48
2019-03-30T00:04:25.688Z,64.53
2019-03-30T00:06:57.630Z,65.49
2019-03-30T00:09:29.347Z,64.92
2019-03-30T00:12:00.751Z,65.33
2019-03-30T00:14:32.210Z,65.32
2019-03-30T00:17:03.884Z,64.67
2019-03-30T00:19:35.564Z,64.35
2019-03-30T00:22:07.580Z,64.53
2019-03-30T00:24:39.012Z,65.02
2019-03-30T00:27:10.648Z,65.21
2019-03-30T00:29:42.118Z,65.06
2019-03-30T00:32:13.485Z,64.78
2019-03-30T00:34:44.869Z,64.93
2019-03-30T00:37:16.875Z,65.25
2019-03-30T00:39:48.870Z,65.06
2019-03-30T00:42:20.659Z,64.87
2019-03-30T00:44:52.054Z,65.25
2019-03-30T00:47:23.688Z,65.21
2019-03-30T00:49:55.195Z,65.27
2019-03-30T00:52:27.147Z,65.27
2019-03-30T00:54:58.770Z,65.62
2019-03-30T00:57:30.617Z,65.53
2019-03-30T01:00:02.350Z,65.46
2019-03-30T01:02:33.741Z,65.24
2019-03-30T01:05:05.498Z,65.34
2019-03-30T01:07:36.950Z,65.39
2019-03-30T01:10:08.443Z,65.57
2019-03-30T01:12:40.043Z,65.94
2019-03-30T01:15:11.621Z,65.76
2019-03-30T01:17:43.342Z,65.46
2019-03-30T01:20:14.998Z,65.05
2019-03-30T01:22:46.962Z,65.45
2019-03-30T01:25:18.386Z,66.29
2019-03-30T01:27:51.069Z,66.28
2019-03-30T01:30:23.694Z,66.13
2019-03-30T01:32:55.158Z,66.24
2019-03-30T01:35:26.912Z,66.62
2019-03-30T01:37:59.062Z,66.02
2019-03-30T01:40:30.722Z,67.37
2019-03-30T01:43:02.171Z,66.50
2019-03-30T01:45:33.580Z,66.69
2019-03-30T01:48:05.847Z,65.74
2019-03-30T01:50:37.468Z,65.61
2019-03-30T01:53:08.870Z,65.03
2019-03-30T01:55:40.260Z,65.73
2019-03-30T01:58:12.265Z,66.52
2019-03-30T02:00:43.704Z,66.10
2019-03-30T02:03:15.686Z,65.90
2019-03-30T02:05:47.281Z,65.87
2019-03-30T02:08:19.675Z,66.26
2019-03-30T02:10:51.078Z,65.82
2019-03-30T02:13:22.506Z,66.19
2019-03-30T02:15:54.291Z,66.01
2019-03-30T02:18:25.697Z,66.13
2019-03-30T02:20:57.088Z,66.12
2019-03-30T02:23:28.718Z,65.74
2019-03-30T02:26:00.216Z,65.96
2019-03-30T02:28:32.191Z,65.73
2019-03-30T02:31:03.612Z,65.98
2019-03-30T02:33:35.371Z,65.66
2019-03-30T02:36:06.747Z,65.88
2019-03-30T02:38:38.439Z,65.72
2019-03-30T02:41:09.822Z,65.74
2019-03-30T02:43:41.601Z,66.60
2019-03-30T02:46:12.974Z,66.64
2019-03-30T02:48:44.853Z,66.29
2019-03-30T02:51:16.232Z,66.70
2019-03-30T02:53:48.408Z,66.58
2019-03-30T02:56:20.103Z,66.71
2019-03-30T02:58:51.714Z,66.17
2019-03-30T03:01:23.478Z,66.02
2019-03-30T03:03:55.331Z,66.23
2019-03-30T03:06:26.965Z,66.29
2019-03-30T03:08:58.366Z,66.21
2019-03-30T03:11:30.104Z,65.82
2019-03-30T03:14:01.862Z,65.81
2019-03-30T03:16:33.530Z,66.03
2019-03-30T03:19:05.155Z,66.63
2019-03-30T03:21:36.567Z,65.70
2019-03-30T03:24:08.269Z,65.84
2019-03-30T03:26:39.668Z,66.48
2019-03-30T03:29:11.384Z,66.35
2019-03-30T03:31:43.090Z,66.40
2019-03-30T03:34:14.871Z,66.04
2019-03-30T03:36:46.247Z,65.77
2019-03-30T03:39:19.016Z,65.93
2019-03-30T03:41:50.730Z,65.83
2019-03-30T03:44:22.321Z,65.95
2019-03-30T03:46:53.714Z,65.78
2019-03-30T03:49:25.426Z,66.24
2019-03-30T03:51:58.315Z,66.28
2019-03-30T03:54:30.322Z,66.00
2019-03-30T03:57:03.820Z,66.35
2019-03-30T03:59:37.189Z,66.19
2019-03-30T04:02:11.145Z,66.40
2019-03-30T04:04:47.339Z,66.38
2019-03-30T04:07:19.039Z,66.11
2019-03-30T04:09:51.440Z,66.66
2019-03-30T04:12:24.400Z,66.54
2019-03-30T04:14:55.855Z,67.13
2019-03-30T04:17:27.608Z,67.12
2019-03-30T04:19:58.986Z,66.73
2019-03-30T04:22:30.379Z,67.17
2019-03-30T04:25:01.964Z,67.46
2019-03-30T04:27:34.193Z,67.03
2019-03-30T04:30:05.807Z,67.00
2019-03-30T04:32:38.187Z,67.03
2019-03-30T04:35:09.543Z,67.70
2019-03-30T04:37:40.941Z,67.49
2019-03-30T04:40:12.664Z,67.33
2019-03-30T04:42:44.030Z,67.14
2019-03-30T04:45:15.562Z,67.29
2019-03-30T04:47:46.914Z,68.10
2019-03-30T04:50:18.545Z,68.35
2019-03-30T04:52:50.506Z,68.07
2019-03-30T04:55:22.364Z,67.94
2019-03-30T04:57:57.844Z,68.39
2019-03-30T05:00:27.089Z,68.31
2019-03-30T05:02:59.510Z,67.61
2019-03-30T05:05:30.922Z,67.44
2019-03-30T05:08:02.309Z,66.85
2019-03-30T05:10:34.048Z,66.78
2019-03-30T05:13:05.456Z,67.50
2019-03-30T05:15:36.894Z,67.57
2019-03-30T05:18:08.611Z,67.42
2019-03-30T05:20:40.053Z,67.68
2019-03-30T05:23:11.721Z,67.41
2019-03-30T05:25:43.088Z,67.65
2019-03-30T05:28:15.534Z,67.40
2019-03-30T05:30:47.793Z,67.16
2019-03-30T05:33:19.164Z,66.97
2019-03-30T05:35:50.946Z,67.40
2019-03-30T05:38:22.657Z,67.51
2019-03-30T05:40:54.035Z,67.30
2019-03-30T05:43:25.439Z,66.87
2019-03-30T05:45:57.039Z,66.76
2019-03-30T05:48:28.869Z,67.13
2019-03-30T05:51:00.671Z,67.30
2019-03-30T05:53:32.328Z,67.42
2019-03-30T05:56:03.720Z,67.04
2019-03-30T05:58:35.094Z,66.77
2019-03-30T06:01:06.694Z,67.25
2019-03-30T06:03:38.405Z,66.99
2019-03-30T06:06:09.851Z,66.56
2019-03-30T06:08:41.272Z,66.72
2019-03-30T06:11:13.199Z,66.76
2019-03-30T06:13:44.823Z,66.61
2019-03-30T06:16:16.214Z,66.37
2019-03-30T06:18:48.130Z,66.19
2019-03-30T06:21:19.571Z,65.73
2019-03-30T06:23:51.062Z,65.25
2019-03-30T06:26:23.659Z,65.17
2019-03-30T06:28:55.045Z,65.11
2019-03-30T06:31:26.552Z,64.98
2019-03-30T06:33:57.946Z,64.84
2019-03-30T06:36:29.624Z,64.96
2019-03-30T06:39:01.572Z,64.51
2019-03-30T06:41:34.164Z,63.96
2019-03-30T06:44:05.577Z,63.77
2019-03-30T06:46:39.462Z,63.32
2019-03-30T06:49:11.102Z,63.19
2019-03-30T06:51:42.499Z,62.88
2019-03-30T06:54:14.948Z,62.56
2019-03-30T06:56:46.370Z,62.18
2019-03-30T06:59:18.227Z,61.66
2019-03-30T07:01:50.057Z,60.98
2019-03-30T07:04:21.597Z,60.33
2019-03-30T07:06:53.330Z,60.34
2019-03-30T07:09:26.599Z,60.16
2019-03-30T07:11:59.909Z,59.35
2019-03-30T07:14:33.665Z,58.64
2019-03-30T07:17:05.216Z,57.86
2019-03-30T07:19:38.323Z,57.17
2019-03-30T07:22:09.755Z,57.33
2019-03-30T07:24:41.120Z,56.77
2019-03-30T07:27:12.828Z,55.61
2019-03-30T07:29:44.535Z,55.53
2019-03-30T07:32:16.229Z,54.92
2019-03-30T07:34:47.858Z,54.71
2019-03-30T07:37:19.275Z,54.42
2019-03-30T07:39:50.988Z,54.01
2019-03-30T07:42:22.686Z,54.30
2019-03-30T07:44:54.688Z,53.97
2019-03-30T07:47:26.056Z,53.25
2019-03-30T07:49:57.868Z,52.68
2019-03-30T07:52:31.865Z,52.63
2019-03-30T07:55:03.313Z,52.58
2019-03-30T07:57:34.785Z,52.51
2019-03-30T08:00:12.674Z,53.40
2019-03-30T08:02:44.150Z,53.58
2019-03-30T08:05:15.802Z,52.58
2019-03-30T08:07:48.369Z,52.89
2019-03-30T08:10:20.134Z,51.77
2019-03-30T08:12:51.941Z,51.64
2019-03-30T08:15:23.425Z,51.84
2019-03-30T08:17:55.270Z,51.46
2019-03-30T08:20:27.982Z,51.26
2019-03-30T08:22:59.392Z,51.04
2019-03-30T08:25:30.890Z,50.82
2019-03-30T08:28:04.375Z,50.23
2019-03-30T08:30:36.071Z,50.77
2019-03-30T08:33:08.814Z,50.82
2019-03-30T08:35:40.578Z,50.60
2019-03-30T08:38:12.309Z,49.96
2019-03-30T08:40:44.292Z,50.13
2019-03-30T08:43:16.054Z,48.54
2019-03-30T08:45:48.989Z,48.65
2019-03-30T08:48:21.111Z,47.08
2019-03-30T08:50:52.820Z,46.58
2019-03-30T08:53:24.352Z,46.84
2019-03-30T08:55:56.057Z,46.69
2019-03-30T08:58:27.728Z,45.50
2019-03-30T09:01:00.078Z,45.20
2019-03-30T09:03:33.940Z,45.85
2019-03-30T09:06:04.642Z,45.94
2019-03-30T09:08:36.330Z,45.67
2019-03-30T09:11:08.235Z,44.42
2019-03-30T09:13:40.192Z,44.52
2019-03-30T09:16:11.789Z,44.08
2019-03-30T09:18:43.179Z,43.30
2019-03-30T09:21:14.833Z,41.33
2019-03-30T09:23:47.796Z,41.50
2019-03-30T09:26:19.409Z,41.78
2019-03-30T09:28:51.306Z,42.14
2019-03-30T09:31:24.256Z,42.07
2019-03-30T09:33:55.914Z,41.99
2019-03-30T09:36:27.449Z,40.97
2019-03-30T09:38:58.828Z,40.90
2019-03-30T09:41:30.238Z,40.95
2019-03-30T09:44:01.887Z,41.03
2019-03-30T09:46:34.674Z,41.28
2019-03-30T09:49:06.284Z,41.31
2019-03-30T09:51:37.801Z,41.10
2019-03-30T09:54:22.858Z,41.05
2019-03-30T09:56:42.563Z,38.69
2019-03-30T09:59:13.984Z,39.09
2019-03-30T10:01:45.737Z,38.49
2019-03-30T10:04:17.397Z,37.19
2019-03-30T10:06:49.701Z,37.07
2019-03-30T10:09:21.377Z,37.49
2019-03-30T10:11:53.072Z,37.93
2019-03-30T10:14:24.540Z,38.17
2019-03-30T10:16:55.972Z,37.79
2019-03-30T10:19:27.746Z,37.77
2019-03-30T10:21:59.672Z,37.90
2019-03-30T10:24:37.858Z,37.98
2019-03-30T10:27:05.335Z,38.23
2019-03-30T10:29:37.940Z,37.61
2019-03-30T10:32:09.361Z,37.44
2019-03-30T10:34:40.772Z,38.51
2019-03-30T10:37:12.226Z,38.40
2019-03-30T10:39:45.944Z,37.39
2019-03-30T10:42:17.403Z,36.74
2019-03-30T10:44:49.117Z,37.04
2019-03-30T10:47:20.629Z,38.09
2019-03-30T10:49:52.132Z,37.17
2019-03-30T10:52:23.965Z,35.92
2019-03-30T10:54:55.642Z,35.81
2019-03-30T10:57:27.306Z,34.96
2019-03-30T10:59:58.754Z,36.15
2019-03-30T11:02:30.194Z,35.60
2019-03-30T11:05:03.204Z,35.85
2019-03-30T11:07:34.991Z,35.97
2019-03-30T11:10:07.669Z,35.68
2019-03-30T11:12:39.081Z,35.95
2019-03-30T11:15:10.488Z,35.99
2019-03-30T11:17:42.510Z,35.89
2019-03-30T11:20:13.943Z,35.49
2019-03-30T11:22:45.371Z,34.21
2019-03-30T11:25:17.121Z,34.87
2019-03-30T11:27:48.575Z,35.33
2019-03-30T11:30:20.079Z,35.33
2019-03-30T11:32:52.137Z,36.06
2019-03-30T11:35:23.608Z,36.11
2019-03-30T11:37:55.348Z,35.41
2019-03-30T11:40:26.818Z,34.52
2019-03-30T11:42:59.296Z,34.67
2019-03-30T11:45:30.931Z,34.38
2019-03-30T11:48:03.317Z,33.31
2019-03-30T11:50:35.700Z,34.14
2019-03-30T11:53:07.744Z,34.55
2019-03-30T11:55:39.412Z,35.12
2019-03-30T11:58:11.133Z,35.48
2019-03-30T12:00:44.903Z,35.54
2019-03-30T12:03:16.937Z,35.75
2019-03-30T12:05:48.399Z,35.83
2019-03-30T12:08:19.917Z,35.29
2019-03-30T12:10:51.576Z,34.60
2019-03-30T12:13:23.355Z,34.76
2019-03-30T12:15:55.017Z,34.56
2019-03-30T12:18:26.781Z,34.57
2019-03-30T12:20:58.254Z,34.76
2019-03-30T12:23:29.965Z,34.11
2019-03-30T12:26:01.559Z,35.07
2019-03-30T12:28:32.986Z,35.84
2019-03-30T12:31:04.553Z,35.15
2019-03-30T12:33:36.228Z,33.97
2019-03-30T12:36:08.147Z,34.09
2019-03-30T12:38:39.845Z,34.14
2019-03-30T12:41:11.268Z,33.90
2019-03-30T12:43:42.593Z,33.30
2019-03-30T12:46:14.296Z,34.70
2019-03-30T12:48:47.896Z,34.24
2019-03-30T12:51:19.299Z,34.80
2019-03-30T12:53:50.905Z,35.49
2019-03-30T12:56:22.340Z,34.63
2019-03-30T12:58:54.664Z,35.94
2019-03-30T13:01:27.158Z,37.30
2019-03-30T13:03:58.809Z,35.77
2019-03-30T13:06:30.191Z,33.53
2019-03-30T13:09:01.874Z,32.91
2019-03-30T13:11:34.313Z,33.19
2019-03-30T13:14:06.736Z,32.58
2019-03-30T13:16:38.375Z,31.98
2019-03-30T13:19:09.889Z,32.81
2019-03-30T13:21:52.308Z,32.61
2019-03-30T13:24:15.595Z,32.58
2019-03-30T13:26:47.131Z,32.93
2019-03-30T13:29:19.556Z,32.82
2019-03-30T13:31:50.955Z,32.03
2019-03-30T13:34:22.385Z,32.41
2019-03-30T13:36:53.752Z,32.92
2019-03-30T13:39:25.177Z,32.36
2019-03-30T13:41:56.874Z,32.66
2019-03-30T13:44:28.794Z,32.36
2019-03-30T13:47:00.474Z,32.53
2019-03-30T13:49:32.113Z,31.95
2019-03-30T13:52:03.858Z,32.79
2019-03-30T13:54:38.499Z,32.97
2019-03-30T13:57:08.984Z,34.18
2019-03-30T13:59:40.472Z,33.87
2019-03-30T14:02:11.904Z,33.65
2019-03-30T14:04:43.287Z,33.92
2019-03-30T14:07:14.719Z,33.82
2019-03-30T14:09:46.134Z,32.97
2019-03-30T14:12:18.661Z,33.29
2019-03-30T14:14:51.412Z,32.92
2019-03-30T14:17:23.512Z,34.10
2019-03-30T14:19:54.891Z,34.08
2019-03-30T14:22:26.281Z,34.19
2019-03-30T14:24:58.441Z,34.54
2019-03-30T14:27:29.847Z,34.02
2019-03-30T14:30:01.328Z,33.15
2019-03-30T14:32:32.801Z,33.00
2019-03-30T14:35:04.525Z,32.80
2019-03-30T14:37:35.921Z,34.13
2019-03-30T14:40:07.926Z,34.16
2019-03-30T14:42:39.651Z,33.82
2019-03-30T14:45:11.420Z,34.07
2019-03-30T14:47:43.038Z,34.22
2019-03-30T14:50:15.138Z,34.05
2019-03-30T14:52:46.885Z,33.53
2019-03-30T14:55:18.318Z,33.39
2019-03-30T14:57:50.113Z,33.25
2019-03-30T15:00:21.686Z,33.17
2019-03-30T15:02:53.454Z,33.40
2019-03-30T15:05:25.137Z,32.91
2019-03-30T15:07:56.601Z,33.35
2019-03-30T15:10:28.042Z,33.53
2019-03-30T15:12:59.975Z,33.58
2019-03-30T15:15:31.495Z,33.19
2019-03-30T15:18:02.963Z,32.81
2019-03-30T15:20:34.480Z,33.16
2019-03-30T15:23:06.142Z,33.78
2019-03-30T15:25:37.587Z,34.24
2019-03-30T15:28:09.036Z,34.61
2019-03-30T15:30:45.029Z,34.30
2019-03-30T15:33:17.045Z,34.21
2019-03-30T15:35:48.487Z,34.26
2019-03-30T15:38:22.714Z,34.17
2019-03-30T15:40:55.769Z,34.52
2019-03-30T15:43:38.282Z,34.45
2019-03-30T15:46:00.700Z,34.34
2019-03-30T15:48:32.411Z,34.62
2019-03-30T15:51:04.866Z,34.87
2019-03-30T15:53:36.289Z,35.10
2019-03-30T15:56:07.846Z,35.18
2019-03-30T15:58:43.351Z,35.19
2019-03-30T16:01:15.707Z,35.07
2019-03-30T16:03:47.062Z,35.54
2019-03-30T16:06:18.570Z,35.83
2019-03-30T16:08:50.093Z,35.79
2019-03-30T16:11:21.579Z,36.05
2019-03-30T16:13:53.207Z,35.79
2019-03-30T16:16:25.057Z,36.00
2019-03-30T16:18:56.494Z,36.32
2019-03-30T16:21:27.896Z,36.34
2019-03-30T16:23:59.340Z,36.88
2019-03-30T16:26:41.790Z,37.29
2019-03-30T16:29:04.574Z,37.48
2019-03-30T16:31:36.001Z,37.45
2019-03-30T16:34:07.387Z,37.65
2019-03-30T16:36:38.991Z,37.82
2019-03-30T16:39:11.146Z,37.99
2019-03-30T16:41:42.627Z,37.64
2019-03-30T16:44:15.222Z,38.08
2019-03-30T16:46:46.945Z,38.16
2019-03-30T16:49:19.529Z,37.96
2019-03-30T16:51:51.360Z,37.98
2019-03-30T16:54:28.805Z,37.83
2019-03-30T16:57:01.481Z,37.61
2019-03-30T16:59:33.090Z,38.05
2019-03-30T17:02:04.796Z,37.59
2019-03-30T17:04:36.504Z,37.64
2019-03-30T17:07:07.899Z,37.77
2019-03-30T17:09:39.285Z,37.57
2019-03-30T17:12:11.140Z,37.97
2019-03-30T17:14:42.522Z,37.90
2019-03-30T17:17:14.006Z,38.15
2019-03-30T17:19:45.768Z,38.17
2019-03-30T17:22:17.366Z,38.36
2019-03-30T17:24:49.089Z,38.41
2019-03-30T17:27:20.836Z,38.67
2019-03-30T17:29:52.524Z,38.70
2019-03-30T17:32:23.886Z,38.87
2019-03-30T17:34:55.661Z,39.08
2019-03-30T17:37:27.402Z,39.39
2019-03-30T17:39:58.860Z,39.14
2019-03-30T17:42:31.581Z,39.42
2019-03-30T17:45:03.173Z,39.51
2019-03-30T17:47:35.283Z,39.90
2019-03-30T17:50:09.155Z,40.20
2019-03-30T17:52:45.583Z,40.15
2019-03-30T17:55:17.049Z,40.24
2019-03-30T17:57:48.484Z,40.48
2019-03-30T18:00:20.749Z,40.68
2019-03-30T18:02:52.890Z,40.78
2019-03-30T18:05:24.539Z,40.92
2019-03-30T18:07:55.959Z,41.04
2019-03-30T18:10:27.453Z,41.13
2019-03-30T18:12:58.982Z,41.21
2019-03-30T18:15:34.931Z,41.43
2019-03-30T18:18:06.972Z,41.37
2019-03-30T18:20:38.985Z,41.36
2019-03-30T18:23:10.391Z,41.53
2019-03-30T18:25:41.801Z,41.46
2019-03-30T18:28:26.423Z,41.51
2019-03-30T18:30:46.573Z,41.62
2019-03-30T18:33:18.076Z,41.59
2019-03-30T18:35:49.987Z,41.86
2019-03-30T18:38:21.859Z,42.07
2019-03-30T18:40:53.267Z,42.12
2019-03-30T18:43:24.734Z,42.41
2019-03-30T18:45:56.801Z,42.31
2019-03-30T18:48:28.249Z,42.84
2019-03-30T18:51:00.081Z,43.30
2019-03-30T18:53:31.685Z,43.22
2019-03-30T18:56:03.081Z,42.90
2019-03-30T18:58:41.659Z,43.43
2019-03-30T19:01:08.904Z,43.41
2019-03-30T19:03:40.378Z,43.69
2019-03-30T19:06:12.443Z,43.73
2019-03-30T19:08:43.907Z,43.60
2019-03-30T19:11:15.299Z,43.49
2019-03-30T19:13:46.744Z,43.44
2019-03-30T19:16:18.478Z,43.41
2019-03-30T19:18:50.896Z,43.66
2019-03-30T19:21:22.385Z,43.75
2019-03-30T19:23:53.800Z,43.73
2019-03-30T19:26:25.513Z,43.68
2019-03-30T19:28:57.098Z,43.69
2019-03-30T19:31:28.828Z,43.76
2019-03-30T19:34:00.724Z,44.02
2019-03-30T19:36:32.277Z,44.10
2019-03-30T19:39:04.737Z,44.24
2019-03-30T19:41:36.205Z,43.70
2019-03-30T19:44:07.697Z,43.82
2019-03-30T19:46:39.113Z,43.73
2019-03-30T19:49:10.744Z,43.87
2019-03-30T19:51:42.150Z,44.22
2019-03-30T19:54:14.022Z,44.26
2019-03-30T19:56:46.935Z,44.32
2019-03-30T19:59:18.304Z,44.41
2019-03-30T20:01:50.428Z,44.07
2019-03-30T20:04:22.122Z,45.14
2019-03-30T20:06:53.697Z,44.28
2019-03-30T20:09:25.130Z,43.67
2019-03-30T20:11:56.520Z,43.76
2019-03-30T20:14:28.123Z,44.27
2019-03-30T20:16:59.686Z,43.58
2019-03-30T20:19:31.294Z,43.69
2019-03-30T20:22:02.908Z,44.28
2019-03-30T20:24:34.623Z,44.31
2019-03-30T20:27:06.124Z,44.24
2019-03-30T20:29:37.981Z,43.97
2019-03-30T20:32:09.842Z,44.25
2019-03-30T20:34:41.576Z,44.48
2019-03-30T20:37:15.707Z,45.09
2019-03-30T20:39:47.260Z,44.59
2019-03-30T20:42:18.787Z,44.81
2019-03-30T20:44:50.468Z,44.99
2019-03-30T20:47:22.028Z,44.97
2019-03-30T20:49:53.471Z,45.37
2019-03-30T20:52:25.386Z,45.32
2019-03-30T20:54:56.825Z,45.25
2019-03-30T20:57:28.636Z,45.80
2019-03-30T21:00:00.353Z,45.92
2019-03-30T21:02:32.290Z,45.77
2019-03-30T21:05:04.379Z,45.57
2019-03-30T21:07:36.015Z,45.70
2019-03-30T21:10:08.517Z,46.23
2019-03-30T21:12:39.941Z,46.25
2019-03-30T21:15:12.454Z,45.98
2019-03-30T21:17:43.899Z,45.70
2019-03-30T21:20:15.837Z,45.38
2019-03-30T21:22:47.231Z,45.50
2019-03-30T21:25:18.710Z,46.27
2019-03-30T21:27:50.344Z,46.32
2019-03-30T21:30:22.075Z,46.97
2019-03-30T21:32:54.344Z,46.98
2019-03-30T21:35:26.916Z,47.25
2019-03-30T21:37:58.861Z,46.72
2019-03-30T21:40:31.312Z,47.14
2019-03-30T21:43:03.135Z,47.92
2019-03-30T21:45:35.041Z,47.44
2019-03-30T21:48:07.618Z,47.53
2019-03-30T21:50:39.032Z,47.70
2019-03-30T21:53:10.748Z,47.85
2019-03-30T21:55:42.722Z,48.01
2019-03-30T21:58:14.173Z,48.28
2019-03-30T22:00:45.529Z,48.49
2019-03-30T22:03:17.497Z,48.59
2019-03-30T22:05:49.250Z,48.83
2019-03-30T22:08:20.980Z,49.34
2019-03-30T22:10:52.639Z,49.41
2019-03-30T22:13:25.183Z,49.47
2019-03-30T22:15:56.953Z,49.41
2019-03-30T22:18:28.712Z,49.33
2019-03-30T22:21:00.102Z,49.96
2019-03-30T22:23:31.795Z,50.08
2019-03-30T22:26:03.517Z,49.93
2019-03-30T22:28:35.125Z,49.78
2019-03-30T22:31:06.525Z,50.46
2019-03-30T22:33:37.953Z,50.48
2019-03-30T22:36:09.522Z,50.73
2019-03-30T22:38:41.187Z,51.38
2019-03-30T22:41:12.629Z,50.91
2019-03-30T22:43:44.038Z,51.07
2019-03-30T22:46:15.548Z,51.06
2019-03-30T22:48:47.484Z,51.39
2019-03-30T22:51:19.044Z,51.66
2019-03-30T22:53:50.933Z,51.86
2019-03-30T22:56:22.361Z,51.84
2019-03-30T22:58:54.001Z,52.52
2019-03-30T23:01:25.963Z,52.62
2019-03-30T23:03:57.453Z,53.29
2019-03-30T23:06:29.171Z,53.70
2019-03-30T23:09:00.690Z,53.62
2019-03-30T23:11:32.936Z,54.02
2019-03-30T23:14:04.277Z,53.57
2019-03-30T23:16:35.830Z,53.72
2019-03-30T23:19:07.367Z,53.92
2019-03-30T23:21:38.822Z,54.49
2019-03-30T23:24:10.278Z,54.19
2019-03-30T23:26:41.783Z,53.98
2019-03-30T23:29:13.475Z,54.35
2019-03-30T23:31:44.908Z,54.92
2019-03-30T23:34:18.202Z,54.61
2019-03-30T23:36:49.900Z,55.54
2019-03-30T23:39:21.968Z,54.88
2019-03-30T23:41:53.342Z,55.04
2019-03-30T23:44:24.861Z,55.46
2019-03-30T23:46:56.714Z,55.73
2019-03-30T23:49:28.451Z,55.82
2019-03-30T23:51:59.865Z,55.87
2019-03-30T23:54:31.729Z,55.83
2019-03-30T23:57:03.731Z,55.91
2019-03-30T23:59:35.402Z,56.17
